Time;durP1;ratioP1;P1;durP2;ratioP2;P2;SDS_P1;SDS_P2;PMS_P1;PMS_P2;Temp;Humidity;BMP_temperature;BMP_pressure;BME280_temperature;BME280_humidity;BME280_pressure;Samples;Min_cycle;Max_cycle;Signal;HPM_P1;HPM_P2
2021/04/19 00:40:17;;;;;;;26.27;20.42;;;6.70;1.00;;;;;;4805642;29;20745;-80
2021/04/19 00:42:50;;;;;;;26.42;21.15;;;6.70;1.00;;;;;;4872800;28;20242;-81
2021/04/19 00:45:20;;;;;;;27.63;21.60;;;6.70;1.00;;;;;;4968255;28;20223;-82
2021/04/19 00:47:55;;;;;;;25.75;22.27;;;6.60;1.00;;;;;;4984294;28;20697;-82
2021/04/19 00:50:44;;;;;;;22.70;20.42;;;6.60;1.00;;;;;;5001491;28;20334;-80
2021/04/19 00:53:38;;;;;;;24.80;20.50;;;6.60;1.00;;;;;;4995879;28;20234;-81
2021/04/19 00:56:10;;;;;;;26.95;23.00;;;6.60;1.00;;;;;;4978621;28;20738;-80
2021/04/19 00:58:46;;;;;;;29.92;23.13;;;6.50;1.00;;;;;;5000358;28;20232;-80
2021/04/19 01:01:26;;;;;;;27.95;20.98;;;6.50;1.00;;;;;;5000080;28;20219;-82
2021/04/19 01:04:07;;;;;;;27.90;21.42;;;6.50;1.00;;;;;;5000539;28;20809;-81
2021/04/19 01:07:05;;;;;;;30.90;24.90;;;6.50;1.00;;;;;;4987001;28;20227;-82
2021/04/19 01:09:45;;;;;;;30.90;24.13;;;6.50;1.00;;;;;;4997440;28;20234;-82
2021/04/19 01:12:34;;;;;;;33.17;26.48;;;6.50;1.00;;;;;;5003551;28;20231;-81
2021/04/19 01:15:19;;;;;;;31.13;23.85;;;6.50;1.00;;;;;;4983293;28;20424;-80
2021/04/19 01:17:56;;;;;;;30.08;24.63;;;6.50;1.00;;;;;;4986844;28;20231;-82
2021/04/19 01:20:51;;;;;;;28.63;22.95;;;6.50;1.00;;;;;;4988326;28;20591;-81
2021/04/19 01:23:19;;;;;;;28.98;24.52;;;6.50;1.00;;;;;;5008237;28;20223;-82
2021/04/19 01:25:55;;;;;;;28.40;25.00;;;6.50;1.00;;;;;;4998079;28;20309;-79
2021/04/19 01:28:43;;;;;;;28.30;25.00;;;6.40;1.00;;;;;;5005634;28;20215;-80
2021/04/19 01:31:31;;;;;;;31.38;27.30;;;6.50;1.00;;;;;;5014298;28;20323;-80
2021/04/19 01:34:08;;;;;;;30.50;26.85;;;6.50;1.00;;;;;;5005086;28;20223;-82
2021/04/19 01:37:09;;;;;;;30.30;26.05;;;6.50;1.00;;;;;;4993275;28;20238;-82
2021/04/19 01:39:43;;;;;;;29.75;26.20;;;6.50;1.00;;;;;;5015918;28;20219;-80
2021/04/19 01:42:18;;;;;;;29.48;25.27;;;6.50;1.00;;;;;;5024238;28;20250;-81
2021/04/19 01:45:42;;;;;;;36.83;28.25;;;6.50;1.00;;;;;;4981267;28;20302;-85
2021/04/19 01:48:46;;;;;;;34.55;28.10;;;6.40;1.00;;;;;;5000855;28;20685;-82
2021/04/19 01:51:18;;;;;;;39.45;28.38;;;6.40;1.00;;;;;;4997121;28;20255;-80
2021/04/19 01:54:00;;;;;;;36.10;28.85;;;6.40;1.00;;;;;;5001335;28;20290;-82
2021/04/19 01:56:32;;;;;;;34.13;28.13;;;6.40;1.00;;;;;;4999760;28;20982;-82
2021/04/19 01:59:06;;;;;;;35.45;27.30;;;6.40;1.00;;;;;;5002643;28;20321;-81
2021/04/19 02:01:56;;;;;;;34.53;26.40;;;6.40;1.00;;;;;;5000447;28;20238;-85
2021/04/19 02:08:14;;;;;;;29.23;25.52;;;6.40;1.00;;;;;;4925665;28;20233;-81
2021/04/19 02:11:23;;;;;;;33.03;26.77;;;6.40;1.00;;;;;;4975332;28;20227;-81
2021/04/19 02:17:31;;;;;;;28.52;23.35;;;6.20;1.00;;;;;;4980780;28;20239;-82
2021/04/19 02:20:09;;;;;;;32.35;26.30;;;6.20;1.00;;;;;;4982960;28;20298;-82
2021/04/19 02:22:40;;;;;;;31.05;25.38;;;6.20;1.00;;;;;;4997958;28;20286;-81
2021/04/19 02:25:17;;;;;;;35.17;28.65;;;6.10;1.00;;;;;;4985292;28;20318;-81
2021/04/19 02:28:12;;;;;;;32.35;27.52;;;6.10;1.00;;;;;;4981351;28;20244;-78
2021/04/19 02:30:58;;;;;;;31.30;26.25;;;6.10;1.00;;;;;;4990286;28;20318;-82
2021/04/19 02:33:30;;;;;;;33.17;28.80;;;6.10;1.00;;;;;;4985217;28;20224;-80
2021/04/19 02:36:00;;;;;;;30.90;27.58;;;6.10;1.00;;;;;;4983979;28;21048;-82
2021/04/19 02:39:26;;;;;;;33.88;28.88;;;6.00;1.00;;;;;;4985655;28;20242;-81
2021/04/19 02:42:17;;;;;;;31.23;25.33;;;6.00;1.00;;;;;;5018519;28;20232;-80
2021/04/19 02:45:04;;;;;;;34.00;27.33;;;6.00;1.00;;;;;;4956836;28;20228;-80
2021/04/19 02:47:30;;;;;;;31.52;27.35;;;5.90;1.00;;;;;;4976514;28;20232;-82
2021/04/19 02:53:51;;;;;;;30.48;24.67;;;5.90;1.00;;;;;;4999220;28;20231;-81
2021/04/19 02:56:34;;;;;;;;;;;;;;;;;;;;;
2021/04/19 02:59:12;;;;;;;33.55;27.27;;;5.90;1.00;;;;;;4913880;29;20319;-81
2021/04/19 03:01:47;;;;;;;34.28;28.08;;;5.90;1.00;;;;;;4995787;28;20230;-82
2021/04/19 03:04:18;;;;;;;35.13;27.65;;;5.90;1.00;;;;;;5010060;28;20214;-82
2021/04/19 03:07:07;;;;;;;32.70;28.58;;;5.90;1.00;;;;;;4990857;28;20229;-82
2021/04/19 03:09:56;;;;;;;35.03;28.10;;;5.90;1.00;;;;;;5006774;28;20275;-80
2021/04/19 03:15:43;;;;;;;35.75;29.67;;;6.00;1.00;;;;;;4970686;28;20266;-82
2021/04/19 03:18:27;;;;;;;33.38;27.30;;;6.00;1.00;;;;;;5002155;28;20234;-82
2021/04/19 03:21:10;;;;;;;35.40;29.02;;;6.10;1.00;;;;;;4987010;28;20278;-81
2021/04/19 03:23:40;;;;;;;33.28;27.13;;;6.10;1.00;;;;;;4990643;28;20231;-83
2021/04/19 03:26:29;;;;;;;35.33;28.77;;;6.10;1.00;;;;;;4992958;28;20235;-81
2021/04/19 03:29:21;;;;;;;35.70;29.05;;;6.10;1.00;;;;;;4991006;28;20238;-80
2021/04/19 03:32:09;;;;;;;31.15;25.83;;;6.10;1.00;;;;;;4992317;28;20235;-82
2021/04/19 03:34:50;;;;;;;34.20;25.98;;;6.10;1.00;;;;;;4987608;28;20356;-82
2021/04/19 03:37:34;;;;;;;31.75;28.13;;;6.00;1.00;;;;;;4997508;28;20281;-81
2021/04/19 03:40:08;;;;;;;34.65;27.95;;;6.00;1.00;;;;;;4989448;28;20270;-80
2021/04/19 03:42:44;;;;;;;32.10;26.23;;;6.00;1.00;;;;;;5002213;28;21016;-80
2021/04/19 03:45:14;;;;;;;32.78;26.85;;;6.00;1.00;;;;;;5000017;28;20235;-82
2021/04/19 03:47:47;;;;;;;35.08;25.77;;;5.90;1.00;;;;;;5011239;28;20314;-83
2021/04/19 03:50:22;;;;;;;32.10;27.35;;;5.90;1.00;;;;;;5000881;28;20234;-82
2021/04/19 03:52:55;;;;;;;34.88;26.27;;;5.90;1.00;;;;;;5003820;28;20242;-82
2021/04/19 03:55:24;;;;;;;30.83;26.75;;;5.90;1.00;;;;;;4980410;28;20285;-81
2021/04/19 03:57:53;;;;;;;37.08;29.42;;;6.00;1.00;;;;;;5008125;28;20640;-82
2021/04/19 04:03:12;;;;;;;29.10;24.95;;;6.10;1.00;;;;;;4982504;28;20250;-82
2021/04/19 04:05:50;;;;;;;28.88;25.52;;;6.00;1.00;;;;;;4982966;28;20222;-82
2021/04/19 04:08:18;;;;;;;30.65;25.85;;;6.00;1.00;;;;;;4986061;28;20223;-78
2021/04/19 04:10:46;;;;;;;27.08;24.20;;;6.00;1.00;;;;;;4979604;28;20234;-77
2021/04/19 04:13:13;;;;;;;26.15;22.90;;;6.00;1.00;;;;;;4995442;28;20350;-78
2021/04/19 04:15:49;;;;;;;26.48;23.55;;;6.00;1.00;;;;;;4983468;28;20247;-78
2021/04/19 04:18:15;;;;;;;28.00;22.80;;;5.90;1.00;;;;;;4996122;28;20222;-77
2021/04/19 04:20:43;;;;;;;26.33;23.63;;;5.90;1.00;;;;;;4981964;28;20242;-77
2021/04/19 04:23:10;;;;;;;31.60;23.88;;;5.90;1.00;;;;;;4999348;28;20219;-81
2021/04/19 04:25:37;;;;;;;28.90;23.10;;;5.90;1.00;;;;;;4973222;28;20223;-78
2021/04/19 04:28:04;;;;;;;28.38;24.55;;;5.80;1.00;;;;;;4998224;28;20227;-80
2021/04/19 04:30:31;;;;;;;31.58;24.40;;;5.90;1.00;;;;;;4999591;28;20711;-79
2021/04/19 04:32:57;;;;;;;27.95;24.85;;;5.90;1.00;;;;;;4985622;28;20325;-80
2021/04/19 04:35:24;;;;;;;28.08;25.15;;;6.00;1.00;;;;;;4996311;28;21163;-79
2021/04/19 04:37:51;;;;;;;32.10;26.13;;;6.00;1.00;;;;;;4999294;28;20236;-77
2021/04/19 04:40:18;;;;;;;30.15;25.27;;;6.10;1.00;;;;;;4998412;28;20307;-77
2021/04/19 04:42:49;;;;;;;28.67;24.45;;;6.10;1.00;;;;;;4997014;28;20223;-78
2021/04/19 04:45:15;;;;;;;33.97;25.35;;;6.10;1.00;;;;;;5006914;28;20223;-78
2021/04/19 04:47:45;;;;;;;30.60;25.20;;;6.10;1.00;;;;;;4990381;28;20234;-79
2021/04/19 04:50:15;;;;;;;30.42;26.05;;;6.10;1.00;;;;;;4994073;28;20230;-78
2021/04/19 04:52:50;;;;;;;27.23;23.73;;;6.00;1.00;;;;;;4997268;28;20233;-77
2021/04/19 04:55:20;;;;;;;31.25;24.88;;;6.00;1.00;;;;;;4996806;28;20243;-79
2021/04/19 04:57:47;;;;;;;30.65;25.60;;;6.00;1.00;;;;;;4984542;28;20238;-76
2021/04/19 05:00:16;;;;;;;30.13;25.30;;;6.10;1.00;;;;;;5004234;28;21588;-80
2021/04/19 05:02:45;;;;;;;30.67;24.63;;;6.10;1.00;;;;;;5004719;28;20223;-79
2021/04/19 05:05:12;;;;;;;28.10;24.48;;;6.20;1.00;;;;;;4994660;28;21025;-78
2021/04/19 05:07:40;;;;;;;30.15;25.95;;;6.20;1.00;;;;;;4987116;28;20326;-79
2021/04/19 05:10:07;;;;;;;32.28;24.92;;;6.30;1.00;;;;;;5001333;28;20223;-79
2021/04/19 05:12:37;;;;;;;30.67;25.60;;;6.30;1.00;;;;;;5000953;28;20299;-79
2021/04/19 05:15:07;;;;;;;29.50;24.02;;;6.30;1.00;;;;;;4985871;28;20960;-77
2021/04/19 05:17:33;;;;;;;28.50;22.40;;;6.40;1.00;;;;;;4995063;28;20238;-79
2021/04/19 05:20:00;;;;;;;26.90;23.60;;;6.30;1.00;;;;;;5002584;28;20614;-79
2021/04/19 05:22:26;;;;;;;30.98;23.58;;;6.40;1.00;;;;;;4986792;28;20249;-78
2021/04/19 05:24:52;;;;;;;30.13;25.15;;;6.40;1.00;;;;;;5001584;28;20369;-78
2021/04/19 05:27:19;;;;;;;30.02;24.90;;;6.50;1.00;;;;;;4994371;28;20234;-81
2021/04/19 05:29:46;;;;;;;29.13;25.25;;;6.60;1.00;;;;;;4993090;28;20250;-76
2021/04/19 05:32:15;;;;;;;27.00;23.98;;;6.70;1.00;;;;;;4995351;28;20235;-77
2021/04/19 05:34:41;;;;;;;30.10;23.52;;;6.80;1.00;;;;;;4987724;28;20222;-79
2021/04/19 05:37:11;;;;;;;25.38;22.52;;;6.90;1.00;;;;;;5003557;28;20732;-81
2021/04/19 05:39:38;;;;;;;31.70;24.65;;;7.00;1.00;;;;;;5002180;28;20236;-78
2021/04/19 05:42:05;;;;;;;28.58;24.90;;;7.00;1.00;;;;;;4997325;28;20222;-76
2021/04/19 05:44:32;;;;;;;25.95;23.15;;;7.10;1.00;;;;;;5007193;28;20236;-77
2021/04/19 05:46:59;;;;;;;27.27;23.55;;;7.20;1.00;;;;;;4995880;28;20233;-77
2021/04/19 05:49:25;;;;;;;23.95;21.38;;;7.30;1.00;;;;;;4994009;28;20219;-76
2021/04/19 05:51:57;;;;;;;28.20;23.48;;;7.30;1.00;;;;;;4998344;28;20234;-77
2021/04/19 05:54:23;;;;;;;26.85;23.83;;;7.40;1.00;;;;;;4989787;28;21541;-76
2021/04/19 05:57:05;;;;;;;29.13;23.60;;;7.40;1.00;;;;;;4993760;28;20247;-76
2021/04/19 05:59:47;;;;;;;24.25;21.52;;;7.40;1.00;;;;;;4988379;28;21056;-76
2021/04/19 06:02:23;;;;;;;26.48;22.92;;;7.40;1.00;;;;;;4991948;28;20239;-76
2021/04/19 06:04:53;;;;;;;27.77;21.92;;;7.40;1.00;;;;;;4990628;28;20293;-76
2021/04/19 06:07:26;;;;;;;28.50;24.52;;;7.50;1.00;;;;;;4994166;28;20290;-77
2021/04/19 06:10:01;;;;;;;27.77;24.88;;;7.50;1.00;;;;;;4991578;28;20351;-76
2021/04/19 06:12:32;;;;;;;27.05;23.67;;;7.60;1.00;;;;;;4992753;28;20274;-76
2021/04/19 06:15:02;;;;;;;23.63;20.15;;;7.60;1.00;;;;;;4995352;28;20264;-76
2021/04/19 06:17:31;;;;;;;28.55;22.90;;;7.70;1.00;;;;;;4996814;28;20220;-77
2021/04/19 06:19:57;;;;;;;27.60;24.65;;;7.90;1.00;;;;;;5003038;28;20227;-78
2021/04/19 06:22:24;;;;;;;25.58;22.00;;;7.90;1.00;;;;;;5002120;28;20247;-77
2021/04/19 06:24:51;;;;;;;27.45;24.55;;;8.00;1.00;;;;;;5002578;28;20273;-77
2021/04/19 06:27:20;;;;;;;25.58;22.77;;;8.10;1.00;;;;;;4999595;28;21168;-79
2021/04/19 06:29:46;;;;;;;26.50;22.15;;;8.10;1.00;;;;;;4997998;28;20242;-77
2021/04/19 06:32:14;;;;;;;29.13;23.50;;;8.20;1.00;;;;;;5000996;28;20318;-78
2021/04/19 06:34:42;;;;;;;29.58;24.80;;;8.30;1.00;;;;;;4981476;28;20220;-78
2021/04/19 06:37:08;;;;;;;24.95;22.20;;;8.40;1.00;;;;;;4997430;28;20215;-77
2021/04/19 06:39:35;;;;;;;29.33;24.25;;;8.50;1.00;;;;;;4998804;28;20270;-76
2021/04/19 06:42:03;;;;;;;27.83;23.23;;;8.60;1.00;;;;;;4998724;28;20238;-78
2021/04/19 06:44:30;;;;;;;25.50;22.55;;;8.80;1.00;;;;;;5007481;28;20232;-78
2021/04/19 06:46:58;;;;;;;32.90;23.58;;;8.90;1.00;;;;;;5008566;28;20207;-78
2021/04/19 06:49:25;;;;;;;30.45;22.25;;;9.10;1.00;;;;;;5004807;28;20221;-77
2021/04/19 06:51:56;;;;;;;29.75;23.05;;;9.10;1.00;;;;;;5003758;28;20236;-81
2021/04/19 06:54:23;;;;;;;27.15;23.42;;;9.20;1.00;;;;;;4997497;28;20219;-77
2021/04/19 06:56:51;;;;;;;31.55;24.60;;;9.30;1.00;;;;;;5006276;28;20933;-79
2021/04/19 06:59:20;;;;;;;30.38;23.58;;;9.40;1.00;;;;;;5001022;28;20231;-80
2021/04/19 07:01:50;;;;;;;33.65;28.52;;;9.50;1.00;;;;;;4985117;28;20222;-79
2021/04/19 07:04:23;;;;;;;33.33;27.98;;;9.60;1.00;;;;;;5002517;28;20232;-80
2021/04/19 07:06:55;;;;;;;33.28;24.90;;;9.80;1.00;;;;;;5004928;28;20675;-82
2021/04/19 07:09:26;;;;;;;28.35;23.50;;;9.80;1.00;;;;;;5002219;28;20322;-80
2021/04/19 07:11:55;;;;;;;27.48;23.95;;;9.90;1.00;;;;;;4988159;28;20240;-79
2021/04/19 07:14:22;;;;;;;24.85;20.85;;;10.00;1.00;;;;;;5009246;28;20231;-84
2021/04/19 07:16:51;;;;;;;28.95;22.95;;;10.10;1.00;;;;;;5008946;28;20234;-84
2021/04/19 07:19:21;;;;;;;29.38;22.95;;;10.20;1.00;;;;;;5009303;28;20231;-82
2021/04/19 07:21:48;;;;;;;23.55;20.92;;;10.30;1.00;;;;;;5012968;28;20225;-82
2021/04/19 07:24:15;;;;;;;33.95;23.60;;;10.30;1.00;;;;;;5014949;28;20791;-81
2021/04/19 07:26:48;;;;;;;25.25;22.65;;;10.40;1.00;;;;;;4993463;28;20227;-82
2021/04/19 07:29:15;;;;;;;27.77;22.13;;;10.50;1.00;;;;;;5013030;28;20983;-83
2021/04/19 07:31:50;;;;;;;23.88;21.42;;;10.60;1.00;;;;;;5026097;28;20239;-85
2021/04/19 07:34:19;;;;;;;33.38;22.80;;;10.60;1.00;;;;;;5025464;28;20236;-87
2021/04/19 07:37:00;;;;;;;25.38;22.52;;;10.70;1.00;;;;;;5008489;28;20320;-85
2021/04/19 07:39:47;;;;;;;29.00;25.38;;;10.90;1.00;;;;;;5016075;28;20230;-86
2021/04/19 07:42:18;;;;;;;31.48;24.58;;;10.90;1.00;;;;;;5012814;28;20226;-84
2021/04/19 07:44:51;;;;;;;27.30;24.40;;;11.00;1.00;;;;;;5008621;28;20233;-83
2021/04/19 07:47:25;;;;;;;33.35;26.13;;;11.20;1.00;;;;;;5025004;28;20227;-85
2021/04/19 07:50:10;;;;;;;39.10;31.13;;;11.30;1.00;;;;;;5030588;28;20688;-86
2021/04/19 07:52:50;;;;;;;32.77;27.33;;;11.50;1.00;;;;;;5011670;28;20439;-86
2021/04/19 07:55:26;;;;;;;32.60;26.45;;;11.50;1.00;;;;;;5033845;28;20406;-86
2021/04/19 07:57:53;;;;;;;33.47;26.67;;;11.50;1.00;;;;;;5016277;28;20223;-86
2021/04/19 08:00:25;;;;;;;29.13;25.03;;;11.40;1.00;;;;;;5013221;28;20419;-85
2021/04/19 08:03:06;;;;;;;32.87;27.10;;;11.30;1.00;;;;;;5028333;28;20423;-86
2021/04/19 08:05:39;;;;;;;28.02;22.80;;;11.30;1.00;;;;;;5034683;28;20491;-84
2021/04/19 08:08:08;;;;;;;28.10;24.20;;;11.30;1.00;;;;;;5031259;28;20215;-88
2021/04/19 08:10:50;;;;;;;25.55;22.13;;;11.30;1.00;;;;;;5017498;28;20451;-86
2021/04/19 08:13:19;;;;;;;23.97;21.37;;;11.30;1.00;;;;;;5010387;28;20215;-85
2021/04/19 08:15:47;;;;;;;27.03;24.13;;;11.40;1.00;;;;;;5013546;28;20440;-84
2021/04/19 08:21:00;;;;;;;24.17;21.60;;;11.40;1.00;;;;;;5016617;28;20426;-84
2021/04/19 08:23:27;;;;;;;33.43;22.83;;;11.40;1.00;;;;;;5031412;28;20225;-89
2021/04/19 08:25:55;;;;;;;31.17;22.97;;;11.60;1.00;;;;;;5012321;28;20454;-85
2021/04/19 08:28:27;;;;;;;26.00;22.53;;;11.70;1.00;;;;;;5012513;28;20528;-84
2021/04/19 08:30:57;;;;;;;34.13;28.60;;;11.80;1.00;;;;;;5030881;28;20411;-82
2021/04/19 08:33:25;;;;;;;27.77;23.90;;;11.90;1.00;;;;;;5026958;28;20434;-80
2021/04/19 08:35:53;;;;;;;26.37;23.67;;;12.20;1.00;;;;;;5027149;28;20402;-81
2021/04/19 08:38:21;;;;;;;28.53;23.03;;;12.60;1.00;;;;;;5026618;28;20427;-82
2021/04/19 08:40:52;;;;;;;26.30;23.63;;;13.00;1.00;;;;;;5011714;28;20454;-82
2021/04/19 08:43:22;;;;;;;29.00;26.30;;;13.40;1.00;;;;;;5029404;28;20415;-84
2021/04/19 08:45:49;;;;;;;26.17;23.50;;;13.60;1.00;;;;;;5031504;28;20406;-80
2021/04/19 08:48:16;;;;;;;25.43;22.90;;;13.90;1.00;;;;;;5028546;28;20457;-83
2021/04/19 08:50:46;;;;;;;24.83;22.30;;;14.00;1.00;;;;;;5026699;28;20419;-79
2021/04/19 08:53:15;;;;;;;28.53;25.53;;;14.00;1.00;;;;;;5026517;28;20431;-80
2021/04/19 08:55:44;;;;;;;29.70;26.63;;;13.80;1.00;;;;;;5025571;28;20463;-79
2021/04/19 08:58:15;;;;;;;31.57;27.83;;;13.80;1.00;;;;;;5022754;28;20433;-83
2021/04/19 09:00:51;;;;;;;29.67;26.60;;;13.80;1.00;;;;;;5022512;28;20546;-81
2021/04/19 09:03:21;;;;;;;29.70;26.40;;;13.80;1.00;;;;;;5033518;28;20418;-82
2021/04/19 09:05:49;;;;;;;30.00;26.77;;;13.80;1.00;;;;;;5023584;28;20450;-78
2021/04/19 09:08:18;;;;;;;31.53;28.30;;;13.80;1.00;;;;;;5014270;28;20431;-75
2021/04/19 09:10:54;;;;;;;28.93;25.97;;;13.90;1.00;;;;;;5016001;28;20577;-76
2021/04/19 09:13:32;;;;;;;28.13;25.33;;;14.20;1.00;;;;;;4988549;28;20441;-77
2021/04/19 09:16:21;;;;;;;28.73;25.83;;;14.20;1.00;;;;;;5011388;28;20414;-77
2021/04/19 09:18:56;;;;;;;27.87;25.03;;;14.40;1.00;;;;;;5013082;28;20440;-76
2021/04/19 09:21:34;;;;;;;31.80;27.57;;;14.40;1.00;;;;;;4988611;28;20424;-76
2021/04/19 09:24:00;;;;;;;30.30;27.03;;;14.30;1.00;;;;;;4988888;28;20458;-76
2021/04/19 09:26:44;;;;;;;31.30;27.97;;;14.10;1.00;;;;;;4996339;28;21216;-76
2021/04/19 09:29:13;;;;;;;33.73;30.20;;;13.90;1.00;;;;;;4988496;28;20457;-77
2021/04/19 09:32:01;;;;;;;30.07;26.97;;;13.90;1.00;;;;;;4983877;28;20815;-77
2021/04/19 09:34:39;;;;;;;29.50;26.30;;;13.80;1.00;;;;;;4996783;28;20481;-76
2021/04/19 09:37:06;;;;;;;30.20;26.97;;;13.80;1.00;;;;;;4995865;28;20492;-75
2021/04/19 09:39:46;;;;;;;30.37;25.57;;;13.80;1.00;;;;;;5002911;28;20451;-76
2021/04/19 09:42:13;;;;;;;28.47;25.67;;;13.90;1.00;;;;;;5006144;28;20457;-75
2021/04/19 09:44:51;;;;;;;32.13;27.77;;;13.90;1.00;;;;;;5003026;28;21703;-76
2021/04/19 09:47:49;;;;;;;27.00;22.17;;;14.10;1.00;;;;;;5003458;28;20454;-76
2021/04/19 09:50:17;;;;;;;27.53;24.30;;;14.10;1.00;;;;;;4988370;28;20438;-75
2021/04/19 09:52:48;;;;;;;28.90;25.80;;;14.20;1.00;;;;;;4998176;28;20466;-77
2021/04/19 09:55:15;;;;;;;24.80;22.33;;;14.50;1.00;;;;;;5010637;28;20449;-77
2021/04/19 09:57:42;;;;;;;26.87;24.20;;;14.80;1.00;;;;;;4991944;28;20451;-77
2021/04/19 10:00:10;;;;;;;22.00;19.80;;;14.80;1.00;;;;;;5001609;28;20460;-77
2021/04/19 10:02:39;;;;;;;23.13;20.70;;;14.90;1.00;;;;;;4990514;28;20444;-76
2021/04/19 10:05:09;;;;;;;23.07;20.57;;;15.10;1.00;;;;;;4997144;28;20423;-76
2021/04/19 10:07:40;;;;;;;23.80;21.43;;;15.30;1.00;;;;;;4998894;28;20482;-75
2021/04/19 10:10:08;;;;;;;22.63;20.50;;;15.60;1.00;;;;;;4975475;28;20447;-75
2021/04/19 10:12:38;;;;;;;23.23;20.93;;;15.70;1.00;;;;;;4989671;28;20574;-76
2021/04/19 10:15:05;;;;;;;22.93;20.13;;;15.80;1.00;;;;;;4986415;28;20452;-75
2021/04/19 10:17:39;;;;;;;21.77;19.07;;;16.00;1.00;;;;;;4991506;28;20592;-75
2021/04/19 10:20:22;;;;;;;21.27;19.13;;;16.20;1.00;;;;;;4989630;28;20512;-76
2021/04/19 10:23:06;;;;;;;24.03;21.63;;;16.30;1.00;;;;;;5013297;28;20413;-75
2021/04/19 10:25:33;;;;;;;22.70;20.60;;;16.30;1.00;;;;;;5014364;28;20411;-76
2021/04/19 10:28:00;;;;;;;19.83;17.97;;;16.30;1.00;;;;;;4991068;28;20604;-76
2021/04/19 10:30:27;;;;;;;21.10;19.10;;;16.30;1.00;;;;;;4989546;28;21379;-75
2021/04/19 10:32:53;;;;;;;19.90;18.00;;;16.10;1.00;;;;;;4988650;28;20547;-75
2021/04/19 10:35:30;;;;;;;22.47;20.07;;;15.80;1.00;;;;;;4992332;28;20518;-77
2021/04/19 10:37:56;;;;;;;24.60;22.00;;;15.60;1.00;;;;;;5006281;28;20529;-78
2021/04/19 10:40:23;;;;;;;23.70;21.30;;;15.30;1.00;;;;;;4983766;28;20572;-79
2021/04/19 10:42:49;;;;;;;23.77;21.30;;;15.30;1.00;;;;;;5003188;28;20450;-77
2021/04/19 10:45:17;;;;;;;23.53;20.63;;;15.20;1.00;;;;;;5003645;28;21384;-78
2021/04/19 10:47:44;;;;;;;21.90;19.90;;;15.10;1.00;;;;;;4986980;28;20522;-77
2021/04/19 10:50:11;;;;;;;24.43;21.77;;;15.10;1.00;;;;;;5003246;28;20415;-78
2021/04/19 10:52:38;;;;;;;23.73;21.40;;;15.10;1.00;;;;;;5003271;28;20608;-78
2021/04/19 10:55:08;;;;;;;21.73;19.40;;;15.50;1.00;;;;;;5003194;28;20520;-77
2021/04/19 10:57:34;;;;;;;25.03;20.03;;;17.30;1.00;;;;;;5000723;28;20799;-79
2021/04/19 11:00:01;;;;;;;24.17;21.70;;;19.50;1.00;;;;;;4995919;28;21504;-81
2021/04/19 11:02:30;;;;;;;26.43;23.93;;;21.30;1.00;;;;;;4981533;28;20840;-81
2021/04/19 11:04:57;;;;;;;24.43;22.13;;;22.60;1.00;;;;;;5003604;28;22935;-84
2021/04/19 11:07:30;;;;;;;24.37;22.03;;;23.60;1.00;;;;;;5005947;28;21013;-83
2021/04/19 11:10:16;;;;;;;24.63;22.13;;;24.40;1.00;;;;;;5001712;28;20425;-82
2021/04/19 11:13:00;;;;;;;24.43;22.23;;;24.50;1.00;;;;;;4991286;28;21043;-83
2021/04/19 11:15:29;;;;;;;25.97;23.47;;;25.10;1.00;;;;;;5001966;28;20445;-80
2021/04/19 11:17:55;;;;;;;23.80;21.70;;;24.80;1.00;;;;;;4992011;28;20475;-79
2021/04/19 11:20:23;;;;;;;24.43;22.13;;;24.50;1.00;;;;;;4996968;28;21140;-81
2021/04/19 11:22:50;;;;;;;23.80;21.43;;;24.90;1.00;;;;;;5001330;28;20492;-82
2021/04/19 11:25:19;;;;;;;24.67;22.60;;;25.30;1.00;;;;;;4997821;28;20457;-85
2021/04/19 11:27:48;;;;;;;29.57;26.73;;;24.90;1.00;;;;;;4977952;28;20447;-81
2021/04/19 11:30:27;;;;;;;24.07;21.80;;;23.80;1.00;;;;;;4993687;28;20497;-84
2021/04/19 11:33:05;;;;;;;24.47;22.23;;;22.80;1.00;;;;;;4989199;28;20971;-81
2021/04/19 11:35:39;;;;;;;24.93;22.53;;;22.10;1.00;;;;;;4987613;28;20478;-82
2021/04/19 11:38:07;;;;;;;25.80;23.20;;;21.60;1.00;;;;;;4977230;28;20461;-79
2021/04/19 11:40:39;;;;;;;24.60;22.50;;;21.10;1.00;;;;;;4996961;28;20455;-83
2021/04/19 11:43:20;;;;;;;24.60;22.40;;;20.80;1.00;;;;;;4993721;28;21530;-86
2021/04/19 11:45:47;;;;;;;25.37;22.90;;;20.70;1.00;;;;;;4997676;28;20464;-82
2021/04/19 11:48:14;;;;;;;25.53;23.23;;;20.50;1.00;;;;;;4993801;28;20480;-81
2021/04/19 11:50:42;;;;;;;27.50;24.53;;;19.90;1.00;;;;;;4985559;28;20454;-83
2021/04/19 11:53:22;;;;;;;28.37;24.20;;;19.60;1.00;;;;;;4993827;28;20422;-83
2021/04/19 11:55:51;;;;;;;23.10;21.00;;;19.40;1.00;;;;;;4999981;28;20534;-80
2021/04/19 11:58:17;;;;;;;24.43;22.03;;;19.60;1.00;;;;;;4999731;28;20482;-79
2021/04/19 12:00:48;;;;;;;23.73;21.33;;;20.10;1.00;;;;;;5002009;28;20464;-80
2021/04/19 12:03:15;;;;;;;22.47;20.37;;;20.90;1.00;;;;;;5008459;28;20448;-78
2021/04/19 12:05:41;;;;;;;22.07;20.17;;;21.80;1.00;;;;;;5000049;28;20426;-77
2021/04/19 12:08:09;;;;;;;22.00;20.10;;;22.60;1.00;;;;;;5009415;28;20532;-78
2021/04/19 12:10:35;;;;;;;21.23;19.30;;;23.90;1.00;;;;;;5005267;28;20458;-77
2021/04/19 12:13:02;;;;;;;21.60;19.20;;;24.60;1.00;;;;;;5001579;28;20427;-79
2021/04/19 12:15:29;;;;;;;22.17;19.90;;;25.50;1.00;;;;;;5004857;28;21057;-78
2021/04/19 12:17:55;;;;;;;21.73;19.93;;;26.20;1.00;;;;;;5022174;28;20414;-81
2021/04/19 12:20:22;;;;;;;21.23;19.43;;;26.90;1.00;;;;;;4998190;28;20446;-80
2021/04/19 12:22:49;;;;;;;21.07;19.27;;;27.50;1.00;;;;;;4998588;28;20475;-82
2021/04/19 12:25:16;;;;;;;19.27;17.53;;;27.80;1.00;;;;;;5011256;28;20509;-83
2021/04/19 12:27:43;;;;;;;20.00;18.10;;;28.20;1.00;;;;;;5016847;28;20445;-82
2021/04/19 12:30:12;;;;;;;21.80;20.00;;;28.50;1.00;;;;;;4995263;28;20541;-82
2021/04/19 12:32:39;;;;;;;21.47;19.53;;;28.00;1.00;;;;;;5007706;28;20459;-84
2021/04/19 12:35:07;;;;;;;19.80;18.07;;;27.00;1.00;;;;;;5002064;28;20470;-81
2021/04/19 12:37:33;;;;;;;20.37;18.67;;;26.70;1.00;;;;;;4998309;28;21003;-83
2021/04/19 12:40:00;;;;;;;18.47;16.77;;;27.30;1.00;;;;;;4996331;28;20422;-83
2021/04/19 12:42:27;;;;;;;22.17;19.97;;;27.70;1.00;;;;;;4982773;28;20471;-83
2021/04/19 12:44:53;;;;;;;20.30;18.60;;;28.30;1.00;;;;;;4993441;28;20442;-82
2021/04/19 12:47:20;;;;;;;20.27;18.37;;;28.20;1.00;;;;;;4979470;28;20458;-81
2021/04/19 12:49:47;;;;;;;19.63;17.83;;;28.20;1.00;;;;;;4999816;28;20507;-80
2021/04/19 12:52:15;;;;;;;21.50;19.40;;;28.30;1.00;;;;;;4988359;28;20474;-84
2021/04/19 12:54:41;;;;;;;19.63;17.83;;;28.60;1.00;;;;;;5001329;28;20435;-82
2021/04/19 12:57:09;;;;;;;20.17;18.27;;;28.80;1.00;;;;;;5002029;28;20404;-84
2021/04/19 12:59:37;;;;;;;18.57;16.87;;;29.20;1.00;;;;;;5004369;28;20500;-83
2021/04/19 13:02:04;;;;;;;17.97;16.37;;;29.10;1.00;;;;;;5008152;28;20588;-81
2021/04/19 13:04:58;;;;;;;20.87;18.97;;;28.30;1.00;;;;;;5011049;28;20415;-87
2021/04/19 13:07:29;;;;;;;20.27;18.40;;;27.40;1.00;;;;;;5018074;28;20442;-82
2021/04/19 13:09:55;;;;;;;21.00;18.57;;;27.30;1.00;;;;;;5022985;28;21385;-83
2021/04/19 13:12:22;;;;;;;19.73;17.83;;;26.60;1.00;;;;;;5015950;28;20452;-83
2021/04/19 13:14:48;;;;;;;20.13;18.33;;;25.50;1.00;;;;;;5005435;28;20683;-82
2021/04/19 13:17:16;;;;;;;20.87;18.90;;;24.60;1.00;;;;;;5003953;28;20659;-82
2021/04/19 13:19:42;;;;;;;20.40;18.60;;;24.70;1.00;;;;;;5014525;28;20426;-81
2021/04/19 13:22:10;;;;;;;21.27;19.43;;;25.30;1.00;;;;;;5011151;28;20532;-80
2021/04/19 13:24:36;;;;;;;21.00;18.87;;;25.10;1.00;;;;;;5001811;28;20441;-82
2021/04/19 13:27:03;;;;;;;20.13;18.30;;;25.00;1.00;;;;;;4988993;28;20566;-77
2021/04/19 13:29:30;;;;;;;20.73;18.93;;;24.90;1.00;;;;;;4985342;28;20449;-76
2021/04/19 13:31:56;;;;;;;21.40;19.40;;;25.00;1.00;;;;;;4994314;28;20461;-76
2021/04/19 13:34:25;;;;;;;20.57;18.60;;;25.70;1.00;;;;;;4991088;28;20737;-79
2021/04/19 13:36:52;;;;;;;21.43;19.60;;;26.70;1.00;;;;;;4992004;28;20557;-77
2021/04/19 13:39:19;;;;;;;20.33;18.53;;;27.30;1.00;;;;;;4979227;28;20945;-75
2021/04/19 13:41:45;;;;;;;20.60;18.90;;;27.00;1.00;;;;;;4989519;28;20549;-76
2021/04/19 13:44:11;;;;;;;19.67;17.77;;;26.50;1.00;;;;;;4983792;28;20442;-77
2021/04/19 13:46:38;;;;;;;19.27;17.67;;;26.90;1.00;;;;;;4998604;28;21300;-77
2021/04/19 13:49:04;;;;;;;19.03;17.33;;;27.80;1.00;;;;;;4954018;28;20458;-76
2021/04/19 13:51:33;;;;;;;18.70;16.80;;;28.50;1.00;;;;;;4971001;28;20461;-76
2021/04/19 13:53:59;;;;;;;19.77;18.00;;;28.70;1.00;;;;;;4983621;28;20543;-77
2021/04/19 13:56:26;;;;;;;20.07;18.47;;;29.10;1.00;;;;;;4991536;28;21024;-77
2021/04/19 13:58:53;;;;;;;20.57;18.70;;;29.40;1.00;;;;;;4994461;28;20420;-76
2021/04/19 14:01:19;;;;;;;22.67;20.60;;;29.50;1.00;;;;;;4955525;28;20482;-74
2021/04/19 14:03:45;;;;;;;20.20;18.50;;;29.30;1.00;;;;;;4964692;28;20467;-75
2021/04/19 14:06:12;;;;;;;19.20;17.33;;;29.50;1.00;;;;;;4979525;28;20471;-74
2021/04/19 14:08:38;;;;;;;20.00;18.13;;;29.80;1.00;;;;;;4985098;28;20449;-74